METAR Data
IDs: Format: Raw Decoded Include TAF

Data at: 0019 UTC 19 Dec 2018

METAR for:KAXV (Wapakoneta/Armstrong, OH, US)
Text:KAXV 182359Z AUTO 00000KT 7SM CLR M01/M03 A3015 RMK AO2
Temperature: -1.0°C ( 30°F)
Dewpoint: -3.0°C ( 27°F) [RH = 86%]
Pressure (altimeter):30.15 inches Hg (1021.1 mb)
Winds:calm
Visibility: 7 sm ( 11 km)
Ceiling:at least 12,000 feet AGL
Clouds:sky clear below 12,000 feet AGL
QC Flag:automated observation with no human augmentation